sensor_id;sensor_type;location;lat;lon;timestamp;temperature;humidity
22827;DHT22;11580;52.562;13.418;2023-06-10T00:00:18;19.40;30.60
22827;DHT22;11580;52.562;13.418;2023-06-10T00:02:46;19.30;30.70
22827;DHT22;11580;52.562;13.418;2023-06-10T00:05:13;19.30;30.80
22827;DHT22;11580;52.562;13.418;2023-06-10T00:07:43;19.20;30.90
22827;DHT22;11580;52.562;13.418;2023-06-10T00:10:11;19.20;31.40
22827;DHT22;11580;52.562;13.418;2023-06-10T00:12:39;19.20;31.00
22827;DHT22;11580;52.562;13.418;2023-06-10T00:15:08;19.10;31.00
22827;DHT22;11580;52.562;13.418;2023-06-10T00:17:36;19.10;31.20
22827;DHT22;11580;52.562;13.418;2023-06-10T00:20:06;19.10;31.30
22827;DHT22;11580;52.562;13.418;2023-06-10T00:22:35;19.00;31.60
22827;DHT22;11580;52.562;13.418;2023-06-10T00:25:05;19.00;31.40
22827;DHT22;11580;52.562;13.418;2023-06-10T00:27:33;19.00;32.10
22827;DHT22;11580;52.562;13.418;2023-06-10T00:30:02;18.90;31.50
22827;DHT22;11580;52.562;13.418;2023-06-10T00:32:32;19.10;31.90
22827;DHT22;11580;52.562;13.418;2023-06-10T00:35:00;18.90;31.60
22827;DHT22;11580;52.562;13.418;2023-06-10T00:37:27;19.10;31.90
22827;DHT22;11580;52.562;13.418;2023-06-10T00:39:55;18.80;31.70
22827;DHT22;11580;52.562;13.418;2023-06-10T00:42:24;18.80;31.90
22827;DHT22;11580;52.562;13.418;2023-06-10T00:44:51;18.80;32.20
22827;DHT22;11580;52.562;13.418;2023-06-10T00:47:18;18.80;32.00
22827;DHT22;11580;52.562;13.418;2023-06-10T00:49:46;18.80;32.10
22827;DHT22;11580;52.562;13.418;2023-06-10T00:52:14;18.70;32.10
22827;DHT22;11580;52.562;13.418;2023-06-10T00:54:44;18.70;32.30
22827;DHT22;11580;52.562;13.418;2023-06-10T00:57:12;18.80;32.40
22827;DHT22;11580;52.562;13.418;2023-06-10T00:59:41;18.70;32.60
22827;DHT22;11580;52.562;13.418;2023-06-10T01:02:14;18.70;32.90
22827;DHT22;11580;52.562;13.418;2023-06-10T01:04:41;18.70;32.40
22827;DHT22;11580;52.562;13.418;2023-06-10T01:07:17;18.70;32.40
22827;DHT22;11580;52.562;13.418;2023-06-10T01:09:55;18.70;33.90
22827;DHT22;11580;52.562;13.418;2023-06-10T01:12:33;18.60;33.10
22827;DHT22;11580;52.562;13.418;2023-06-10T01:15:07;18.60;33.50
22827;DHT22;11580;52.562;13.418;2023-06-10T01:17:37;18.60;33.10
22827;DHT22;11580;52.562;13.418;2023-06-10T01:20:22;18.50;33.10
22827;DHT22;11580;52.562;13.418;2023-06-10T01:22:51;18.50;32.60
22827;DHT22;11580;52.562;13.418;2023-06-10T01:25:20;18.50;33.10
22827;DHT22;11580;52.562;13.418;2023-06-10T01:27:54;18.40;32.70
22827;DHT22;11580;52.562;13.418;2023-06-10T01:30:32;18.40;32.90
22827;DHT22;11580;52.562;13.418;2023-06-10T01:33:08;18.50;33.70
22827;DHT22;11580;52.562;13.418;2023-06-10T01:35:38;18.40;33.30
22827;DHT22;11580;52.562;13.418;2023-06-10T01:38:08;18.40;33.10
22827;DHT22;11580;52.562;13.418;2023-06-10T01:40:39;18.30;33.50
22827;DHT22;11580;52.562;13.418;2023-06-10T01:43:07;18.30;33.40
22827;DHT22;11580;52.562;13.418;2023-06-10T01:45:34;18.30;33.30
22827;DHT22;11580;52.562;13.418;2023-06-10T01:48:01;18.30;33.30
22827;DHT22;11580;52.562;13.418;2023-06-10T01:50:29;18.20;33.30
22827;DHT22;11580;52.562;13.418;2023-06-10T01:52:57;18.20;33.40
22827;DHT22;11580;52.562;13.418;2023-06-10T01:55:28;18.20;33.60
22827;DHT22;11580;52.562;13.418;2023-06-10T01:57:55;18.20;34.10
22827;DHT22;11580;52.562;13.418;2023-06-10T02:00:23;18.10;33.60
22827;DHT22;11580;52.562;13.418;2023-06-10T02:02:50;18.10;33.70
22827;DHT22;11580;52.562;13.418;2023-06-10T02:05:17;18.10;33.70
22827;DHT22;11580;52.562;13.418;2023-06-10T02:07:44;18.10;33.90
22827;DHT22;11580;52.562;13.418;2023-06-10T02:10:11;18.10;33.90
22827;DHT22;11580;52.562;13.418;2023-06-10T02:12:40;18.10;34.10
22827;DHT22;11580;52.562;13.418;2023-06-10T02:15:07;18.00;34.60
22827;DHT22;11580;52.562;13.418;2023-06-10T02:17:34;18.00;34.10
22827;DHT22;11580;52.562;13.418;2023-06-10T02:20:03;18.10;34.40
22827;DHT22;11580;52.562;13.418;2023-06-10T02:22:33;18.00;34.50
22827;DHT22;11580;52.562;13.418;2023-06-10T02:25:00;18.00;34.50
22827;DHT22;11580;52.562;13.418;2023-06-10T02:27:27;17.90;34.50
22827;DHT22;11580;52.562;13.418;2023-06-10T02:29:56;17.90;34.70
22827;DHT22;11580;52.562;13.418;2023-06-10T02:32:24;17.90;34.80
22827;DHT22;11580;52.562;13.418;2023-06-10T02:34:52;17.90;34.80
22827;DHT22;11580;52.562;13.418;2023-06-10T02:37:22;17.90;34.80
22827;DHT22;11580;52.562;13.418;2023-06-10T02:39:49;17.90;35.50
22827;DHT22;11580;52.562;13.418;2023-06-10T02:42:16;17.90;34.80
22827;DHT22;11580;52.562;13.418;2023-06-10T02:44:44;17.90;34.80
22827;DHT22;11580;52.562;13.418;2023-06-10T02:47:17;17.90;34.80
22827;DHT22;11580;52.562;13.418;2023-06-10T02:49:44;17.90;34.80
22827;DHT22;11580;52.562;13.418;2023-06-10T02:52:12;17.90;34.80
22827;DHT22;11580;52.562;13.418;2023-06-10T02:54:39;17.80;34.70
22827;DHT22;11580;52.562;13.418;2023-06-10T02:57:08;17.80;34.70
22827;DHT22;11580;52.562;13.418;2023-06-10T02:59:36;17.80;34.70
22827;DHT22;11580;52.562;13.418;2023-06-10T03:02:05;17.80;34.70
22827;DHT22;11580;52.562;13.418;2023-06-10T03:04:40;17.80;34.70
22827;DHT22;11580;52.562;13.418;2023-06-10T03:07:13;17.90;35.30
22827;DHT22;11580;52.562;13.418;2023-06-10T03:09:41;17.80;34.70
22827;DHT22;11580;52.562;13.418;2023-06-10T03:12:10;17.80;34.70
22827;DHT22;11580;52.562;13.418;2023-06-10T03:14:43;17.80;34.70
22827;DHT22;11580;52.562;13.418;2023-06-10T03:17:10;17.90;34.80
22827;DHT22;11580;52.562;13.418;2023-06-10T03:19:42;17.90;35.00
22827;DHT22;11580;52.562;13.418;2023-06-10T03:22:10;17.90;35.60
22827;DHT22;11580;52.562;13.418;2023-06-10T03:24:52;17.90;35.40
22827;DHT22;11580;52.562;13.418;2023-06-10T03:27:20;17.90;35.00
22827;DHT22;11580;52.562;13.418;2023-06-10T03:29:52;17.90;35.10
22827;DHT22;11580;52.562;13.418;2023-06-10T03:32:20;17.90;35.10
22827;DHT22;11580;52.562;13.418;2023-06-10T03:34:48;17.90;35.20
22827;DHT22;11580;52.562;13.418;2023-06-10T03:37:18;18.00;35.70
22827;DHT22;11580;52.562;13.418;2023-06-10T03:39:47;18.00;35.30
22827;DHT22;11580;52.562;13.418;2023-06-10T03:42:15;18.00;35.40
22827;DHT22;11580;52.562;13.418;2023-06-10T03:44:42;18.00;35.50
22827;DHT22;11580;52.562;13.418;2023-06-10T03:47:09;18.10;35.60
22827;DHT22;11580;52.562;13.418;2023-06-10T03:49:38;18.10;35.60
22827;DHT22;11580;52.562;13.418;2023-06-10T03:52:08;18.20;35.60
22827;DHT22;11580;52.562;13.418;2023-06-10T03:54:35;18.20;35.80
22827;DHT22;11580;52.562;13.418;2023-06-10T03:57:03;18.30;35.30
22827;DHT22;11580;52.562;13.418;2023-06-10T03:59:31;18.30;35.20
22827;DHT22;11580;52.562;13.418;2023-06-10T04:01:58;18.40;35.20
22827;DHT22;11580;52.562;13.418;2023-06-10T04:04:26;18.40;35.20
22827;DHT22;11580;52.562;13.418;2023-06-10T04:06:53;18.40;35.20
22827;DHT22;11580;52.562;13.418;2023-06-10T04:09:23;18.50;35.30
22827;DHT22;11580;52.562;13.418;2023-06-10T04:11:51;18.50;35.30
22827;DHT22;11580;52.562;13.418;2023-06-10T04:14:19;18.50;35.30
22827;DHT22;11580;52.562;13.418;2023-06-10T04:16:47;18.60;35.40
22827;DHT22;11580;52.562;13.418;2023-06-10T04:19:15;18.60;35.40
22827;DHT22;11580;52.562;13.418;2023-06-10T04:21:43;18.60;35.40
22827;DHT22;11580;52.562;13.418;2023-06-10T04:24:10;18.70;35.50
22827;DHT22;11580;52.562;13.418;2023-06-10T04:26:39;18.70;35.50
22827;DHT22;11580;52.562;13.418;2023-06-10T04:29:07;18.80;35.60
22827;DHT22;11580;52.562;13.418;2023-06-10T04:31:34;18.80;35.60
22827;DHT22;11580;52.562;13.418;2023-06-10T04:34:01;18.90;35.70
22827;DHT22;11580;52.562;13.418;2023-06-10T04:36:29;19.00;35.70
22827;DHT22;11580;52.562;13.418;2023-06-10T04:38:56;19.00;35.50
22827;DHT22;11580;52.562;13.418;2023-06-10T04:41:23;19.10;35.30
22827;DHT22;11580;52.562;13.418;2023-06-10T04:43:53;19.10;35.20
22827;DHT22;11580;52.562;13.418;2023-06-10T04:46:20;19.20;35.20
22827;DHT22;11580;52.562;13.418;2023-06-10T04:48:47;19.30;34.90
22827;DHT22;11580;52.562;13.418;2023-06-10T04:51:15;19.40;34.90
22827;DHT22;11580;52.562;13.418;2023-06-10T04:53:42;19.40;34.80
22827;DHT22;11580;52.562;13.418;2023-06-10T04:56:10;19.40;34.70
22827;DHT22;11580;52.562;13.418;2023-06-10T04:58:37;19.50;35.40
22827;DHT22;11580;52.562;13.418;2023-06-10T05:01:05;19.50;34.60
22827;DHT22;11580;52.562;13.418;2023-06-10T05:03:33;19.60;34.80
22827;DHT22;11580;52.562;13.418;2023-06-10T05:06:00;19.60;34.60
22827;DHT22;11580;52.562;13.418;2023-06-10T05:08:27;19.60;34.80
22827;DHT22;11580;52.562;13.418;2023-06-10T05:10:54;19.70;35.40
22827;DHT22;11580;52.562;13.418;2023-06-10T05:13:21;19.90;35.80
22827;DHT22;11580;52.562;13.418;2023-06-10T05:15:48;20.40;36.30
22827;DHT22;11580;52.562;13.418;2023-06-10T05:18:17;20.50;36.00
22827;DHT22;11580;52.562;13.418;2023-06-10T05:20:44;20.90;35.30
22827;DHT22;11580;52.562;13.418;2023-06-10T05:23:12;21.30;34.60
22827;DHT22;11580;52.562;13.418;2023-06-10T05:25:39;21.50;33.70
22827;DHT22;11580;52.562;13.418;2023-06-10T05:28:07;22.00;32.80
22827;DHT22;11580;52.562;13.418;2023-06-10T05:30:35;22.20;32.20
22827;DHT22;11580;52.562;13.418;2023-06-10T05:33:03;22.30;32.00
22827;DHT22;11580;52.562;13.418;2023-06-10T05:35:31;22.40;31.80
22827;DHT22;11580;52.562;13.418;2023-06-10T05:37:58;22.50;31.50
22827;DHT22;11580;52.562;13.418;2023-06-10T05:40:25;22.60;31.40
22827;DHT22;11580;52.562;13.418;2023-06-10T05:42:52;22.70;31.10
22827;DHT22;11580;52.562;13.418;2023-06-10T05:45:19;22.70;30.90
22827;DHT22;11580;52.562;13.418;2023-06-10T05:47:46;22.80;30.60
22827;DHT22;11580;52.562;13.418;2023-06-10T05:50:14;22.90;30.60
22827;DHT22;11580;52.562;13.418;2023-06-10T05:52:43;22.90;30.50
22827;DHT22;11580;52.562;13.418;2023-06-10T05:55:10;22.90;30.40
22827;DHT22;11580;52.562;13.418;2023-06-10T05:57:37;22.90;30.30
22827;DHT22;11580;52.562;13.418;2023-06-10T06:00:06;23.00;30.20
22827;DHT22;11580;52.562;13.418;2023-06-10T06:02:41;23.00;30.20
22827;DHT22;11580;52.562;13.418;2023-06-10T06:05:08;23.00;30.10
22827;DHT22;11580;52.562;13.418;2023-06-10T06:07:35;23.10;30.30
22827;DHT22;11580;52.562;13.418;2023-06-10T06:10:05;23.10;30.30
22827;DHT22;11580;52.562;13.418;2023-06-10T06:12:32;23.10;30.10
22827;DHT22;11580;52.562;13.418;2023-06-10T06:15:00;23.20;30.00
22827;DHT22;11580;52.562;13.418;2023-06-10T06:17:27;23.20;29.90
22827;DHT22;11580;52.562;13.418;2023-06-10T06:19:54;23.20;29.80
22827;DHT22;11580;52.562;13.418;2023-06-10T06:22:21;23.20;29.90
22827;DHT22;11580;52.562;13.418;2023-06-10T06:24:48;23.20;29.90
22827;DHT22;11580;52.562;13.418;2023-06-10T06:27:16;23.30;30.00
22827;DHT22;11580;52.562;13.418;2023-06-10T06:29:43;23.30;30.00
22827;DHT22;11580;52.562;13.418;2023-06-10T06:32:11;23.40;29.90
22827;DHT22;11580;52.562;13.418;2023-06-10T06:34:38;23.50;29.80
22827;DHT22;11580;52.562;13.418;2023-06-10T06:37:05;23.60;30.20
22827;DHT22;11580;52.562;13.418;2023-06-10T06:39:35;23.60;29.60
22827;DHT22;11580;52.562;13.418;2023-06-10T06:42:02;23.70;29.40
22827;DHT22;11580;52.562;13.418;2023-06-10T06:44:47;23.70;29.20
22827;DHT22;11580;52.562;13.418;2023-06-10T06:47:15;23.80;29.10
22827;DHT22;11580;52.562;13.418;2023-06-10T06:49:45;23.80;29.10
22827;DHT22;11580;52.562;13.418;2023-06-10T06:52:12;23.80;29.10
22827;DHT22;11580;52.562;13.418;2023-06-10T06:54:39;23.80;29.10
22827;DHT22;11580;52.562;13.418;2023-06-10T06:57:06;23.90;29.80
22827;DHT22;11580;52.562;13.418;2023-06-10T06:59:34;23.90;29.30
22827;DHT22;11580;52.562;13.418;2023-06-10T07:02:02;24.00;29.40
22827;DHT22;11580;52.562;13.418;2023-06-10T07:04:30;24.10;29.30
22827;DHT22;11580;52.562;13.418;2023-06-10T07:06:57;24.20;29.40
22827;DHT22;11580;52.562;13.418;2023-06-10T07:09:24;24.40;29.50
22827;DHT22;11580;52.562;13.418;2023-06-10T07:11:51;24.60;29.60
22827;DHT22;11580;52.562;13.418;2023-06-10T07:14:18;24.80;29.50
22827;DHT22;11580;52.562;13.418;2023-06-10T07:16:45;25.00;29.30
22827;DHT22;11580;52.562;13.418;2023-06-10T07:19:15;25.30;29.00
22827;DHT22;11580;52.562;13.418;2023-06-10T07:21:42;25.50;28.90
22827;DHT22;11580;52.562;13.418;2023-06-10T07:24:09;25.70;28.90
22827;DHT22;11580;52.562;13.418;2023-06-10T07:26:36;25.90;28.40
22827;DHT22;11580;52.562;13.418;2023-06-10T07:29:04;26.10;28.10
22827;DHT22;11580;52.562;13.418;2023-06-10T07:31:31;26.20;27.70
22827;DHT22;11580;52.562;13.418;2023-06-10T07:33:58;26.30;27.40
22827;DHT22;11580;52.562;13.418;2023-06-10T07:36:27;26.40;27.20
22827;DHT22;11580;52.562;13.418;2023-06-10T07:38:55;26.40;27.00
22827;DHT22;11580;52.562;13.418;2023-06-10T07:41:23;26.50;27.10
22827;DHT22;11580;52.562;13.418;2023-06-10T07:43:51;26.50;27.20
22827;DHT22;11580;52.562;13.418;2023-06-10T07:46:20;26.70;27.20
22827;DHT22;11580;52.562;13.418;2023-06-10T07:48:47;26.80;27.20
22827;DHT22;11580;52.562;13.418;2023-06-10T07:51:15;26.90;27.10
22827;DHT22;11580;52.562;13.418;2023-06-10T07:53:44;27.10;27.60
22827;DHT22;11580;52.562;13.418;2023-06-10T07:56:11;27.20;26.90
22827;DHT22;11580;52.562;13.418;2023-06-10T07:58:38;27.40;26.60
22827;DHT22;11580;52.562;13.418;2023-06-10T08:01:06;27.60;26.20
22827;DHT22;11580;52.562;13.418;2023-06-10T08:03:33;27.70;26.10
22827;DHT22;11580;52.562;13.418;2023-06-10T08:06:00;27.80;25.80
22827;DHT22;11580;52.562;13.418;2023-06-10T08:08:27;27.80;25.50
22827;DHT22;11580;52.562;13.418;2023-06-10T08:10:56;27.80;25.20
22827;DHT22;11580;52.562;13.418;2023-06-10T08:13:23;27.80;25.00
22827;DHT22;11580;52.562;13.418;2023-06-10T08:15:50;27.80;25.10
22827;DHT22;11580;52.562;13.418;2023-06-10T08:18:19;27.70;25.20
22827;DHT22;11580;52.562;13.418;2023-06-10T08:20:46;27.60;25.20
22827;DHT22;11580;52.562;13.418;2023-06-10T08:23:14;27.60;25.10
22827;DHT22;11580;52.562;13.418;2023-06-10T08:25:41;27.60;25.10
22827;DHT22;11580;52.562;13.418;2023-06-10T08:28:10;27.60;25.30
22827;DHT22;11580;52.562;13.418;2023-06-10T08:30:37;27.50;25.40
22827;DHT22;11580;52.562;13.418;2023-06-10T08:33:04;27.60;25.50
22827;DHT22;11580;52.562;13.418;2023-06-10T08:35:31;27.60;25.50
22827;DHT22;11580;52.562;13.418;2023-06-10T08:37:58;27.60;25.40
22827;DHT22;11580;52.562;13.418;2023-06-10T08:40:26;27.60;25.20
22827;DHT22;11580;52.562;13.418;2023-06-10T08:43:00;27.70;25.00
22827;DHT22;11580;52.562;13.418;2023-06-10T08:45:35;27.70;24.60
22827;DHT22;11580;52.562;13.418;2023-06-10T08:48:03;27.60;25.10
22827;DHT22;11580;52.562;13.418;2023-06-10T08:50:34;27.50;24.60
22827;DHT22;11580;52.562;13.418;2023-06-10T08:53:05;27.40;24.60
22827;DHT22;11580;52.562;13.418;2023-06-10T08:55:35;27.30;24.80
22827;DHT22;11580;52.562;13.418;2023-06-10T08:58:04;27.20;24.80
22827;DHT22;11580;52.562;13.418;2023-06-10T09:00:34;27.20;25.00
22827;DHT22;11580;52.562;13.418;2023-06-10T09:03:03;27.10;25.00
22827;DHT22;11580;52.562;13.418;2023-06-10T09:05:34;27.00;25.10
22827;DHT22;11580;52.562;13.418;2023-06-10T09:08:03;26.90;25.10
22827;DHT22;11580;52.562;13.418;2023-06-10T09:10:30;26.80;25.10
22827;DHT22;11580;52.562;13.418;2023-06-10T09:12:59;26.70;25.20
22827;DHT22;11580;52.562;13.418;2023-06-10T09:15:26;26.60;28.00
22827;DHT22;11580;52.562;13.418;2023-06-10T09:17:55;26.40;29.40
22827;DHT22;11580;52.562;13.418;2023-06-10T09:20:23;26.10;30.30
22827;DHT22;11580;52.562;13.418;2023-06-10T09:22:50;25.70;30.40
22827;DHT22;11580;52.562;13.418;2023-06-10T09:25:17;25.20;31.70
22827;DHT22;11580;52.562;13.418;2023-06-10T09:27:47;24.80;33.60
22827;DHT22;11580;52.562;13.418;2023-06-10T09:30:26;24.30;35.00
22827;DHT22;11580;52.562;13.418;2023-06-10T09:32:56;23.90;39.10
22827;DHT22;11580;52.562;13.418;2023-06-10T09:35:25;23.60;38.30
22827;DHT22;11580;52.562;13.418;2023-06-10T09:37:54;23.30;38.30
22827;DHT22;11580;52.562;13.418;2023-06-10T09:40:22;23.00;39.10
22827;DHT22;11580;52.562;13.418;2023-06-10T09:42:53;22.80;39.60
22827;DHT22;11580;52.562;13.418;2023-06-10T09:45:22;22.60;42.20
22827;DHT22;11580;52.562;13.418;2023-06-10T09:47:52;22.40;41.70
22827;DHT22;11580;52.562;13.418;2023-06-10T09:50:21;22.30;43.70
22827;DHT22;11580;52.562;13.418;2023-06-10T09:52:48;22.20;44.20
22827;DHT22;11580;52.562;13.418;2023-06-10T09:55:17;22.10;45.20
22827;DHT22;11580;52.562;13.418;2023-06-10T09:57:45;22.10;45.00
22827;DHT22;11580;52.562;13.418;2023-06-10T10:00:16;22.10;45.60
22827;DHT22;11580;52.562;13.418;2023-06-10T10:02:45;22.10;46.00
22827;DHT22;11580;52.562;13.418;2023-06-10T10:05:14;22.20;46.80
22827;DHT22;11580;52.562;13.418;2023-06-10T10:07:44;22.20;47.10
22827;DHT22;11580;52.562;13.418;2023-06-10T10:10:13;22.20;48.50
22827;DHT22;11580;52.562;13.418;2023-06-10T10:12:42;22.30;48.60
22827;DHT22;11580;52.562;13.418;2023-06-10T10:15:12;22.50;48.90
22827;DHT22;11580;52.562;13.418;2023-06-10T10:17:45;22.60;48.90
22827;DHT22;11580;52.562;13.418;2023-06-10T10:20:20;22.70;49.70
22827;DHT22;11580;52.562;13.418;2023-06-10T10:22:56;22.90;49.40
22827;DHT22;11580;52.562;13.418;2023-06-10T10:25:26;23.00;49.50
22827;DHT22;11580;52.562;13.418;2023-06-10T10:27:58;23.20;48.60
22827;DHT22;11580;52.562;13.418;2023-06-10T10:30:34;23.30;48.20
22827;DHT22;11580;52.562;13.418;2023-06-10T10:33:11;23.40;47.90
22827;DHT22;11580;52.562;13.418;2023-06-10T10:35:40;23.50;46.30
22827;DHT22;11580;52.562;13.418;2023-06-10T10:38:10;23.50;45.20
22827;DHT22;11580;52.562;13.418;2023-06-10T10:40:39;23.40;44.60
22827;DHT22;11580;52.562;13.418;2023-06-10T10:43:07;23.30;44.20
22827;DHT22;11580;52.562;13.418;2023-06-10T10:45:35;23.10;44.30
22827;DHT22;11580;52.562;13.418;2023-06-10T10:48:07;22.90;44.10
22827;DHT22;11580;52.562;13.418;2023-06-10T10:50:38;22.80;45.10
22827;DHT22;11580;52.562;13.418;2023-06-10T10:53:06;22.50;44.20
22827;DHT22;11580;52.562;13.418;2023-06-10T10:55:35;22.30;44.70
22827;DHT22;11580;52.562;13.418;2023-06-10T10:58:04;22.10;44.60
22827;DHT22;11580;52.562;13.418;2023-06-10T11:00:33;21.90;45.20
22827;DHT22;11580;52.562;13.418;2023-06-10T11:03:06;21.70;45.80
22827;DHT22;11580;52.562;13.418;2023-06-10T11:05:39;21.60;47.70
22827;DHT22;11580;52.562;13.418;2023-06-10T11:08:10;21.50;48.80
22827;DHT22;11580;52.562;13.418;2023-06-10T11:10:40;21.50;49.20
22827;DHT22;11580;52.562;13.418;2023-06-10T11:13:09;21.50;50.10
22827;DHT22;11580;52.562;13.418;2023-06-10T11:15:43;21.60;50.90
22827;DHT22;11580;52.562;13.418;2023-06-10T11:18:14;21.70;52.60
22827;DHT22;11580;52.562;13.418;2023-06-10T11:20:55;21.90;52.80
22827;DHT22;11580;52.562;13.418;2023-06-10T11:23:34;22.10;54.70
22827;DHT22;11580;52.562;13.418;2023-06-10T11:26:20;22.30;54.00
22827;DHT22;11580;52.562;13.418;2023-06-10T11:29:17;22.50;54.00
22827;DHT22;11580;52.562;13.418;2023-06-10T11:31:49;22.80;53.20
22827;DHT22;11580;52.562;13.418;2023-06-10T11:34:24;22.90;52.20
22827;DHT22;11580;52.562;13.418;2023-06-10T11:36:52;23.10;52.80
22827;DHT22;11580;52.562;13.418;2023-06-10T11:39:21;23.20;53.00
22827;DHT22;11580;52.562;13.418;2023-06-10T11:41:53;23.40;52.50
22827;DHT22;11580;52.562;13.418;2023-06-10T11:44:21;23.50;52.60
22827;DHT22;11580;52.562;13.418;2023-06-10T11:46:49;23.60;52.00
22827;DHT22;11580;52.562;13.418;2023-06-10T11:49:17;23.80;52.80
22827;DHT22;11580;52.562;13.418;2023-06-10T11:51:44;23.90;52.90
22827;DHT22;11580;52.562;13.418;2023-06-10T11:54:15;24.00;53.00
22827;DHT22;11580;52.562;13.418;2023-06-10T11:56:43;24.10;52.00
22827;DHT22;11580;52.562;13.418;2023-06-10T11:59:12;24.20;51.80
22827;DHT22;11580;52.562;13.418;2023-06-10T12:01:43;24.30;51.30
22827;DHT22;11580;52.562;13.418;2023-06-10T12:04:12;24.50;50.90
22827;DHT22;11580;52.562;13.418;2023-06-10T12:06:42;24.60;51.20
22827;DHT22;11580;52.562;13.418;2023-06-10T12:09:14;24.70;51.10
22827;DHT22;11580;52.562;13.418;2023-06-10T12:11:42;24.80;50.70
22827;DHT22;11580;52.562;13.418;2023-06-10T12:14:12;25.00;50.70
22827;DHT22;11580;52.562;13.418;2023-06-10T12:16:39;25.10;49.70
22827;DHT22;11580;52.562;13.418;2023-06-10T12:19:06;25.30;50.00
22827;DHT22;11580;52.562;13.418;2023-06-10T12:21:36;25.50;48.60
22827;DHT22;11580;52.562;13.418;2023-06-10T12:24:09;25.60;48.20
22827;DHT22;11580;52.562;13.418;2023-06-10T12:26:38;25.90;45.50
22827;DHT22;11580;52.562;13.418;2023-06-10T12:29:18;26.10;44.40
22827;DHT22;11580;52.562;13.418;2023-06-10T12:32:09;26.20;41.70
22827;DHT22;11580;52.562;13.418;2023-06-10T12:34:39;26.40;40.90
22827;DHT22;11580;52.562;13.418;2023-06-10T12:37:10;26.60;41.90
22827;DHT22;11580;52.562;13.418;2023-06-10T12:39:41;26.80;38.20
22827;DHT22;11580;52.562;13.418;2023-06-10T12:42:09;26.90;39.40
22827;DHT22;11580;52.562;13.418;2023-06-10T12:44:40;27.10;38.20
22827;DHT22;11580;52.562;13.418;2023-06-10T12:47:08;27.20;36.40
22827;DHT22;11580;52.562;13.418;2023-06-10T12:49:38;27.40;36.90
22827;DHT22;11580;52.562;13.418;2023-06-10T12:52:06;27.60;36.30
22827;DHT22;11580;52.562;13.418;2023-06-10T12:54:34;27.70;36.30
22827;DHT22;11580;52.562;13.418;2023-06-10T12:57:02;27.90;35.90
22827;DHT22;11580;52.562;13.418;2023-06-10T12:59:29;28.00;35.10
22827;DHT22;11580;52.562;13.418;2023-06-10T13:01:59;28.10;35.30
22827;DHT22;11580;52.562;13.418;2023-06-10T13:04:26;28.20;34.20
22827;DHT22;11580;52.562;13.418;2023-06-10T13:06:53;28.30;33.80
22827;DHT22;11580;52.562;13.418;2023-06-10T13:09:21;28.40;33.60
22827;DHT22;11580;52.562;13.418;2023-06-10T13:11:48;28.50;33.80
22827;DHT22;11580;52.562;13.418;2023-06-10T13:14:16;28.70;32.40
22827;DHT22;11580;52.562;13.418;2023-06-10T13:16:43;28.80;32.20
22827;DHT22;11580;52.562;13.418;2023-06-10T13:19:12;28.80;31.20
22827;DHT22;11580;52.562;13.418;2023-06-10T13:21:39;28.90;31.40
22827;DHT22;11580;52.562;13.418;2023-06-10T13:24:07;29.00;30.80
22827;DHT22;11580;52.562;13.418;2023-06-10T13:26:34;29.10;30.10
22827;DHT22;11580;52.562;13.418;2023-06-10T13:29:02;29.20;29.80
22827;DHT22;11580;52.562;13.418;2023-06-10T13:31:29;29.30;29.30
22827;DHT22;11580;52.562;13.418;2023-06-10T13:33:57;29.40;29.30
22827;DHT22;11580;52.562;13.418;2023-06-10T13:36:26;29.40;29.00
22827;DHT22;11580;52.562;13.418;2023-06-10T13:38:53;29.50;28.50
22827;DHT22;11580;52.562;13.418;2023-06-10T13:41:21;29.60;28.30
22827;DHT22;11580;52.562;13.418;2023-06-10T13:43:48;29.70;27.80
22827;DHT22;11580;52.562;13.418;2023-06-10T13:46:15;29.80;27.70
22827;DHT22;11580;52.562;13.418;2023-06-10T13:48:42;29.80;28.10
22827;DHT22;11580;52.562;13.418;2023-06-10T13:51:10;29.90;28.00
22827;DHT22;11580;52.562;13.418;2023-06-10T13:53:38;30.00;26.80
22827;DHT22;11580;52.562;13.418;2023-06-10T13:56:05;30.00;26.30
22827;DHT22;11580;52.562;13.418;2023-06-10T13:58:33;30.00;26.40
22827;DHT22;11580;52.562;13.418;2023-06-10T14:01:04;30.10;26.60
22827;DHT22;11580;52.562;13.418;2023-06-10T14:03:31;30.10;26.40
22827;DHT22;11580;52.562;13.418;2023-06-10T14:05:59;30.20;26.50
22827;DHT22;11580;52.562;13.418;2023-06-10T14:08:26;30.20;26.50
22827;DHT22;11580;52.562;13.418;2023-06-10T14:10:54;30.20;26.50
22827;DHT22;11580;52.562;13.418;2023-06-10T14:13:21;30.20;26.20
22827;DHT22;11580;52.562;13.418;2023-06-10T14:15:49;30.30;26.10
22827;DHT22;11580;52.562;13.418;2023-06-10T14:18:16;30.30;25.20
22827;DHT22;11580;52.562;13.418;2023-06-10T14:20:43;30.40;24.60
22827;DHT22;11580;52.562;13.418;2023-06-10T14:23:10;30.40;23.70
22827;DHT22;11580;52.562;13.418;2023-06-10T14:25:37;30.40;24.20
22827;DHT22;11580;52.562;13.418;2023-06-10T14:28:06;30.40;23.50
22827;DHT22;11580;52.562;13.418;2023-06-10T14:30:33;30.50;23.30
22827;DHT22;11580;52.562;13.418;2023-06-10T14:33:01;30.50;23.30
22827;DHT22;11580;52.562;13.418;2023-06-10T14:35:28;30.50;23.30
22827;DHT22;11580;52.562;13.418;2023-06-10T14:37:55;30.50;23.10
22827;DHT22;11580;52.562;13.418;2023-06-10T14:40:22;30.50;23.80
22827;DHT22;11580;52.562;13.418;2023-06-10T14:42:51;30.50;22.90
22827;DHT22;11580;52.562;13.418;2023-06-10T14:45:20;30.60;23.70
22827;DHT22;11580;52.562;13.418;2023-06-10T14:47:47;30.60;22.80
22827;DHT22;11580;52.562;13.418;2023-06-10T14:50:14;30.60;22.50
22827;DHT22;11580;52.562;13.418;2023-06-10T14:52:41;30.70;22.30
22827;DHT22;11580;52.562;13.418;2023-06-10T14:55:09;30.80;22.40
22827;DHT22;11580;52.562;13.418;2023-06-10T14:57:36;30.80;21.40
22827;DHT22;11580;52.562;13.418;2023-06-10T15:00:04;30.90;21.40
22827;DHT22;11580;52.562;13.418;2023-06-10T15:02:33;31.00;21.00
22827;DHT22;11580;52.562;13.418;2023-06-10T15:05:01;31.10;20.20
22827;DHT22;11580;52.562;13.418;2023-06-10T15:07:29;31.10;20.80
22827;DHT22;11580;52.562;13.418;2023-06-10T15:09:56;31.10;21.30
22827;DHT22;11580;52.562;13.418;2023-06-10T15:12:23;31.20;21.10
22827;DHT22;11580;52.562;13.418;2023-06-10T15:14:51;31.30;21.10
22827;DHT22;11580;52.562;13.418;2023-06-10T15:17:18;31.30;20.70
22827;DHT22;11580;52.562;13.418;2023-06-10T15:19:46;31.40;20.00
22827;DHT22;11580;52.562;13.418;2023-06-10T15:22:13;31.60;20.30
22827;DHT22;11580;52.562;13.418;2023-06-10T15:24:41;31.50;20.10